sensor_id;sensor_type;location;lat;lon;timestamp;P1;durP1;ratioP1;P2;durP2;ratioP2
32228;SDS011;18717;48.034;11.186;2024-03-08T00:00:10;43.63;;;21.48;;
32228;SDS011;18717;48.034;11.186;2024-03-08T00:02:42;39.03;;;19.60;;
32228;SDS011;18717;48.034;11.186;2024-03-08T00:05:10;39.80;;;21.70;;
32228;SDS011;18717;48.034;11.186;2024-03-08T00:07:39;39.40;;;20.23;;
32228;SDS011;18717;48.034;11.186;2024-03-08T00:10:07;36.22;;;18.67;;
32228;SDS011;18717;48.034;11.186;2024-03-08T00:12:39;28.98;;;15.55;;
32228;SDS011;18717;48.034;11.186;2024-03-08T00:15:08;38.42;;;19.38;;
32228;SDS011;18717;48.034;11.186;2024-03-08T00:17:37;28.15;;;17.73;;
32228;SDS011;18717;48.034;11.186;2024-03-08T00:20:05;41.38;;;20.55;;
32228;SDS011;18717;48.034;11.186;2024-03-08T00:22:35;39.45;;;20.75;;
32228;SDS011;18717;48.034;11.186;2024-03-08T00:25:03;38.65;;;19.52;;
32228;SDS011;18717;48.034;11.186;2024-03-08T00:27:35;38.47;;;20.15;;
32228;SDS011;18717;48.034;11.186;2024-03-08T00:30:06;38.08;;;21.45;;
32228;SDS011;18717;48.034;11.186;2024-03-08T00:32:35;41.95;;;20.60;;
32228;SDS011;18717;48.034;11.186;2024-03-08T00:35:04;43.50;;;21.27;;
32228;SDS011;18717;48.034;11.186;2024-03-08T00:37:34;39.45;;;19.83;;
32228;SDS011;18717;48.034;11.186;2024-03-08T00:40:02;42.63;;;19.25;;
32228;SDS011;18717;48.034;11.186;2024-03-08T00:42:31;35.35;;;19.20;;
32228;SDS011;18717;48.034;11.186;2024-03-08T00:44:59;39.22;;;19.02;;
32228;SDS011;18717;48.034;11.186;2024-03-08T00:47:29;41.28;;;19.98;;
32228;SDS011;18717;48.034;11.186;2024-03-08T00:49:57;33.72;;;19.02;;
32228;SDS011;18717;48.034;11.186;2024-03-08T00:52:26;36.80;;;20.00;;
32228;SDS011;18717;48.034;11.186;2024-03-08T00:54:54;37.00;;;19.10;;
32228;SDS011;18717;48.034;11.186;2024-03-08T00:57:21;34.35;;;18.15;;
32228;SDS011;18717;48.034;11.186;2024-03-08T00:59:49;38.65;;;21.40;;
32228;SDS011;18717;48.034;11.186;2024-03-08T01:02:19;38.97;;;20.00;;
32228;SDS011;18717;48.034;11.186;2024-03-08T01:04:49;38.70;;;19.38;;
32228;SDS011;18717;48.034;11.186;2024-03-08T01:07:16;40.80;;;21.08;;
32228;SDS011;18717;48.034;11.186;2024-03-08T01:09:44;37.10;;;19.70;;
32228;SDS011;18717;48.034;11.186;2024-03-08T01:12:12;32.65;;;18.92;;
32228;SDS011;18717;48.034;11.186;2024-03-08T01:14:41;36.38;;;21.75;;
32228;SDS011;18717;48.034;11.186;2024-03-08T01:17:09;38.13;;;20.13;;
32228;SDS011;18717;48.034;11.186;2024-03-08T01:19:38;40.28;;;19.83;;
32228;SDS011;18717;48.034;11.186;2024-03-08T01:22:07;33.67;;;18.65;;
32228;SDS011;18717;48.034;11.186;2024-03-08T01:24:35;35.15;;;18.50;;
32228;SDS011;18717;48.034;11.186;2024-03-08T01:27:03;39.90;;;19.35;;
32228;SDS011;18717;48.034;11.186;2024-03-08T01:29:32;37.05;;;17.85;;
32228;SDS011;18717;48.034;11.186;2024-03-08T01:31:59;31.45;;;18.45;;
32228;SDS011;18717;48.034;11.186;2024-03-08T01:34:28;35.88;;;20.58;;
32228;SDS011;18717;48.034;11.186;2024-03-08T01:36:56;37.58;;;19.85;;
32228;SDS011;18717;48.034;11.186;2024-03-08T01:39:26;32.00;;;18.65;;
32228;SDS011;18717;48.034;11.186;2024-03-08T01:41:54;41.53;;;19.42;;
32228;SDS011;18717;48.034;11.186;2024-03-08T01:44:22;38.28;;;19.17;;
32228;SDS011;18717;48.034;11.186;2024-03-08T01:46:50;35.47;;;19.30;;
32228;SDS011;18717;48.034;11.186;2024-03-08T01:49:20;35.75;;;18.63;;
32228;SDS011;18717;48.034;11.186;2024-03-08T01:51:47;35.28;;;18.27;;
32228;SDS011;18717;48.034;11.186;2024-03-08T01:54:16;38.67;;;19.55;;
32228;SDS011;18717;48.034;11.186;2024-03-08T01:56:46;40.45;;;19.92;;
32228;SDS011;18717;48.034;11.186;2024-03-08T01:59:15;34.22;;;19.15;;
32228;SDS011;18717;48.034;11.186;2024-03-08T02:01:44;35.03;;;18.58;;
32228;SDS011;18717;48.034;11.186;2024-03-08T02:04:12;32.78;;;19.23;;
32228;SDS011;18717;48.034;11.186;2024-03-08T02:06:39;32.40;;;18.70;;
32228;SDS011;18717;48.034;11.186;2024-03-08T02:09:07;39.17;;;19.20;;
32228;SDS011;18717;48.034;11.186;2024-03-08T02:11:36;31.10;;;17.15;;
32228;SDS011;18717;48.034;11.186;2024-03-08T02:14:06;34.05;;;17.08;;
32228;SDS011;18717;48.034;11.186;2024-03-08T02:16:34;30.52;;;17.50;;
32228;SDS011;18717;48.034;11.186;2024-03-08T02:19:02;35.60;;;19.25;;
32228;SDS011;18717;48.034;11.186;2024-03-08T02:21:31;36.53;;;18.58;;
32228;SDS011;18717;48.034;11.186;2024-03-08T02:23:59;34.55;;;18.67;;
32228;SDS011;18717;48.034;11.186;2024-03-08T02:26:27;30.15;;;17.58;;
32228;SDS011;18717;48.034;11.186;2024-03-08T02:28:55;34.28;;;18.80;;
32228;SDS011;18717;48.034;11.186;2024-03-08T02:34:26;28.52;;;17.80;;
32228;SDS011;18717;48.034;11.186;2024-03-08T02:36:55;33.45;;;17.60;;
32228;SDS011;18717;48.034;11.186;2024-03-08T02:39:23;30.52;;;18.33;;
32228;SDS011;18717;48.034;11.186;2024-03-08T02:41:52;38.92;;;17.95;;
32228;SDS011;18717;48.034;11.186;2024-03-08T02:44:19;30.27;;;17.25;;
32228;SDS011;18717;48.034;11.186;2024-03-08T02:46:48;33.70;;;18.55;;
32228;SDS011;18717;48.034;11.186;2024-03-08T02:49:16;35.92;;;17.58;;
32228;SDS011;18717;48.034;11.186;2024-03-08T02:51:44;30.35;;;18.27;;
32228;SDS011;18717;48.034;11.186;2024-03-08T02:54:14;31.45;;;17.92;;
32228;SDS011;18717;48.034;11.186;2024-03-08T02:56:43;30.90;;;17.17;;
32228;SDS011;18717;48.034;11.186;2024-03-08T02:59:12;37.03;;;19.00;;
32228;SDS011;18717;48.034;11.186;2024-03-08T03:01:41;35.15;;;18.08;;
32228;SDS011;18717;48.034;11.186;2024-03-08T03:04:09;33.75;;;18.63;;
32228;SDS011;18717;48.034;11.186;2024-03-08T03:06:37;38.03;;;20.00;;
32228;SDS011;18717;48.034;11.186;2024-03-08T03:09:05;38.30;;;18.45;;
32228;SDS011;18717;48.034;11.186;2024-03-08T03:11:35;34.10;;;17.73;;
32228;SDS011;18717;48.034;11.186;2024-03-08T03:14:04;34.13;;;18.63;;
32228;SDS011;18717;48.034;11.186;2024-03-08T03:16:33;33.80;;;18.90;;
32228;SDS011;18717;48.034;11.186;2024-03-08T03:19:01;33.50;;;19.23;;
32228;SDS011;18717;48.034;11.186;2024-03-08T03:21:31;33.13;;;18.40;;
32228;SDS011;18717;48.034;11.186;2024-03-08T03:24:02;36.22;;;17.77;;
32228;SDS011;18717;48.034;11.186;2024-03-08T03:26:30;35.40;;;19.63;;
32228;SDS011;18717;48.034;11.186;2024-03-08T03:29:00;41.10;;;18.90;;
32228;SDS011;18717;48.034;11.186;2024-03-08T03:31:29;30.33;;;17.73;;
32228;SDS011;18717;48.034;11.186;2024-03-08T03:33:57;37.75;;;18.75;;
32228;SDS011;18717;48.034;11.186;2024-03-08T03:36:28;36.90;;;19.35;;
32228;SDS011;18717;48.034;11.186;2024-03-08T03:38:56;32.38;;;19.88;;
32228;SDS011;18717;48.034;11.186;2024-03-08T03:41:33;33.63;;;18.45;;
32228;SDS011;18717;48.034;11.186;2024-03-08T03:44:02;31.40;;;18.33;;
32228;SDS011;18717;48.034;11.186;2024-03-08T03:46:31;36.65;;;18.23;;
32228;SDS011;18717;48.034;11.186;2024-03-08T03:48:59;36.72;;;19.73;;
32228;SDS011;18717;48.034;11.186;2024-03-08T03:51:27;34.33;;;17.80;;
32228;SDS011;18717;48.034;11.186;2024-03-08T03:53:55;31.90;;;17.65;;
32228;SDS011;18717;48.034;11.186;2024-03-08T03:56:27;32.85;;;19.17;;
32228;SDS011;18717;48.034;11.186;2024-03-08T03:58:54;33.78;;;18.27;;
32228;SDS011;18717;48.034;11.186;2024-03-08T04:01:24;33.42;;;17.88;;
32228;SDS011;18717;48.034;11.186;2024-03-08T04:03:52;31.05;;;18.92;;
32228;SDS011;18717;48.034;11.186;2024-03-08T04:06:19;31.40;;;17.83;;
32228;SDS011;18717;48.034;11.186;2024-03-08T04:08:49;36.75;;;18.63;;
32228;SDS011;18717;48.034;11.186;2024-03-08T04:11:17;33.90;;;18.67;;
32228;SDS011;18717;48.034;11.186;2024-03-08T04:13:44;41.70;;;20.15;;
32228;SDS011;18717;48.034;11.186;2024-03-08T04:16:12;33.50;;;17.45;;
32228;SDS011;18717;48.034;11.186;2024-03-08T04:18:41;38.10;;;20.40;;
32228;SDS011;18717;48.034;11.186;2024-03-08T04:21:10;37.00;;;20.17;;
32228;SDS011;18717;48.034;11.186;2024-03-08T04:23:38;37.08;;;19.65;;
32228;SDS011;18717;48.034;11.186;2024-03-08T04:26:06;34.88;;;20.33;;
32228;SDS011;18717;48.034;11.186;2024-03-08T04:28:35;40.40;;;21.58;;
32228;SDS011;18717;48.034;11.186;2024-03-08T04:31:03;41.38;;;19.88;;
32228;SDS011;18717;48.034;11.186;2024-03-08T04:33:31;34.20;;;19.30;;
32228;SDS011;18717;48.034;11.186;2024-03-08T04:36:00;37.47;;;18.73;;
32228;SDS011;18717;48.034;11.186;2024-03-08T04:38:30;37.05;;;19.85;;
32228;SDS011;18717;48.034;11.186;2024-03-08T04:40:58;30.38;;;19.27;;
32228;SDS011;18717;48.034;11.186;2024-03-08T04:43:28;35.65;;;20.05;;
32228;SDS011;18717;48.034;11.186;2024-03-08T04:45:56;39.33;;;19.67;;
32228;SDS011;18717;48.034;11.186;2024-03-08T04:48:24;43.50;;;22.15;;
32228;SDS011;18717;48.034;11.186;2024-03-08T04:50:53;38.65;;;20.08;;
32228;SDS011;18717;48.034;11.186;2024-03-08T04:53:23;41.13;;;21.15;;
32228;SDS011;18717;48.034;11.186;2024-03-08T04:55:51;34.80;;;19.27;;
32228;SDS011;18717;48.034;11.186;2024-03-08T04:58:19;36.13;;;19.15;;
32228;SDS011;18717;48.034;11.186;2024-03-08T05:00:47;42.47;;;22.15;;
32228;SDS011;18717;48.034;11.186;2024-03-08T05:03:15;38.88;;;21.50;;
32228;SDS011;18717;48.034;11.186;2024-03-08T05:05:42;37.97;;;20.27;;
32228;SDS011;18717;48.034;11.186;2024-03-08T05:08:10;39.75;;;19.52;;
32228;SDS011;18717;48.034;11.186;2024-03-08T05:10:39;38.45;;;20.65;;
32228;SDS011;18717;48.034;11.186;2024-03-08T05:13:07;37.42;;;20.73;;
32228;SDS011;18717;48.034;11.186;2024-03-08T05:15:35;42.60;;;19.13;;
32228;SDS011;18717;48.034;11.186;2024-03-08T05:18:03;38.30;;;21.38;;
32228;SDS011;18717;48.034;11.186;2024-03-08T05:20:31;43.03;;;23.10;;
32228;SDS011;18717;48.034;11.186;2024-03-08T05:22:59;39.85;;;20.58;;
32228;SDS011;18717;48.034;11.186;2024-03-08T05:25:27;39.00;;;20.52;;
32228;SDS011;18717;48.034;11.186;2024-03-08T05:27:56;41.30;;;20.70;;
32228;SDS011;18717;48.034;11.186;2024-03-08T05:30:24;41.22;;;21.08;;
32228;SDS011;18717;48.034;11.186;2024-03-08T05:32:52;40.15;;;20.60;;
32228;SDS011;18717;48.034;11.186;2024-03-08T05:35:20;38.72;;;21.80;;
32228;SDS011;18717;48.034;11.186;2024-03-08T05:37:47;41.35;;;21.38;;
32228;SDS011;18717;48.034;11.186;2024-03-08T05:40:15;37.33;;;19.65;;
32228;SDS011;18717;48.034;11.186;2024-03-08T05:42:46;39.58;;;22.13;;
32228;SDS011;18717;48.034;11.186;2024-03-08T05:45:15;41.22;;;20.52;;
32228;SDS011;18717;48.034;11.186;2024-03-08T05:47:43;44.63;;;22.70;;
32228;SDS011;18717;48.034;11.186;2024-03-08T05:50:11;41.10;;;19.77;;
32228;SDS011;18717;48.034;11.186;2024-03-08T05:52:39;43.10;;;21.35;;
32228;SDS011;18717;48.034;11.186;2024-03-08T05:55:07;46.47;;;21.85;;
32228;SDS011;18717;48.034;11.186;2024-03-08T05:57:36;49.20;;;24.52;;
32228;SDS011;18717;48.034;11.186;2024-03-08T06:00:06;49.58;;;22.00;;
32228;SDS011;18717;48.034;11.186;2024-03-08T06:02:38;44.47;;;21.17;;
32228;SDS011;18717;48.034;11.186;2024-03-08T06:05:08;44.70;;;21.98;;
32228;SDS011;18717;48.034;11.186;2024-03-08T06:07:36;42.40;;;23.02;;
32228;SDS011;18717;48.034;11.186;2024-03-08T06:10:07;45.88;;;22.02;;
32228;SDS011;18717;48.034;11.186;2024-03-08T06:12:37;46.50;;;22.05;;
32228;SDS011;18717;48.034;11.186;2024-03-08T06:15:07;43.83;;;22.73;;
32228;SDS011;18717;48.034;11.186;2024-03-08T06:17:36;38.92;;;20.73;;
32228;SDS011;18717;48.034;11.186;2024-03-08T06:20:06;43.15;;;23.00;;
32228;SDS011;18717;48.034;11.186;2024-03-08T06:22:39;48.60;;;22.73;;
32228;SDS011;18717;48.034;11.186;2024-03-08T06:25:08;44.60;;;22.40;;
32228;SDS011;18717;48.034;11.186;2024-03-08T06:27:37;42.25;;;20.13;;
32228;SDS011;18717;48.034;11.186;2024-03-08T06:30:05;43.35;;;21.55;;
32228;SDS011;18717;48.034;11.186;2024-03-08T06:32:36;41.23;;;21.80;;
32228;SDS011;18717;48.034;11.186;2024-03-08T06:35:06;40.70;;;20.40;;
32228;SDS011;18717;48.034;11.186;2024-03-08T06:37:34;44.35;;;21.52;;
32228;SDS011;18717;48.034;11.186;2024-03-08T06:40:02;38.90;;;21.48;;
32228;SDS011;18717;48.034;11.186;2024-03-08T06:42:30;43.03;;;20.45;;
32228;SDS011;18717;48.034;11.186;2024-03-08T06:45:01;46.92;;;22.15;;
32228;SDS011;18717;48.034;11.186;2024-03-08T06:47:31;42.05;;;21.50;;
32228;SDS011;18717;48.034;11.186;2024-03-08T06:50:00;39.08;;;21.13;;
32228;SDS011;18717;48.034;11.186;2024-03-08T06:52:29;50.35;;;22.25;;
32228;SDS011;18717;48.034;11.186;2024-03-08T06:54:57;38.50;;;21.08;;
32228;SDS011;18717;48.034;11.186;2024-03-08T06:57:24;44.83;;;22.15;;
32228;SDS011;18717;48.034;11.186;2024-03-08T06:59:52;40.95;;;21.48;;
32228;SDS011;18717;48.034;11.186;2024-03-08T07:02:20;44.83;;;22.58;;
32228;SDS011;18717;48.034;11.186;2024-03-08T07:04:50;39.78;;;21.50;;
32228;SDS011;18717;48.034;11.186;2024-03-08T07:07:19;44.28;;;22.10;;
32228;SDS011;18717;48.034;11.186;2024-03-08T07:09:49;42.17;;;20.98;;
32228;SDS011;18717;48.034;11.186;2024-03-08T07:12:17;44.58;;;22.63;;
32228;SDS011;18717;48.034;11.186;2024-03-08T07:14:47;43.60;;;20.70;;
32228;SDS011;18717;48.034;11.186;2024-03-08T07:17:14;42.72;;;18.92;;
32228;SDS011;18717;48.034;11.186;2024-03-08T07:19:42;43.60;;;21.15;;
32228;SDS011;18717;48.034;11.186;2024-03-08T07:22:10;41.42;;;20.83;;
32228;SDS011;18717;48.034;11.186;2024-03-08T07:24:38;42.53;;;20.17;;
32228;SDS011;18717;48.034;11.186;2024-03-08T07:27:23;38.83;;;20.75;;
32228;SDS011;18717;48.034;11.186;2024-03-08T07:29:51;39.00;;;21.35;;
32228;SDS011;18717;48.034;11.186;2024-03-08T07:32:34;41.72;;;20.05;;
32228;SDS011;18717;48.034;11.186;2024-03-08T07:35:02;36.58;;;19.85;;
32228;SDS011;18717;48.034;11.186;2024-03-08T07:37:30;36.85;;;20.25;;
32228;SDS011;18717;48.034;11.186;2024-03-08T07:39:57;38.45;;;21.67;;
32228;SDS011;18717;48.034;11.186;2024-03-08T07:42:27;40.78;;;19.90;;
32228;SDS011;18717;48.034;11.186;2024-03-08T07:44:55;40.10;;;19.55;;
32228;SDS011;18717;48.034;11.186;2024-03-08T07:47:23;36.25;;;17.35;;
32228;SDS011;18717;48.034;11.186;2024-03-08T07:49:52;43.67;;;22.65;;
32228;SDS011;18717;48.034;11.186;2024-03-08T07:52:20;39.47;;;21.15;;
32228;SDS011;18717;48.034;11.186;2024-03-08T07:54:48;39.67;;;19.90;;
32228;SDS011;18717;48.034;11.186;2024-03-08T07:57:16;39.70;;;20.98;;
32228;SDS011;18717;48.034;11.186;2024-03-08T07:59:45;38.03;;;21.00;;
32228;SDS011;18717;48.034;11.186;2024-03-08T08:02:13;43.80;;;22.92;;
32228;SDS011;18717;48.034;11.186;2024-03-08T08:04:41;40.47;;;22.02;;
32228;SDS011;18717;48.034;11.186;2024-03-08T08:07:09;46.92;;;23.52;;
32228;SDS011;18717;48.034;11.186;2024-03-08T08:09:37;44.50;;;22.85;;
32228;SDS011;18717;48.034;11.186;2024-03-08T08:12:05;37.45;;;20.00;;
32228;SDS011;18717;48.034;11.186;2024-03-08T08:14:33;37.47;;;20.67;;
32228;SDS011;18717;48.034;11.186;2024-03-08T08:17:02;40.70;;;20.63;;
32228;SDS011;18717;48.034;11.186;2024-03-08T08:19:31;40.22;;;22.55;;
32228;SDS011;18717;48.034;11.186;2024-03-08T08:21:59;39.22;;;20.13;;
32228;SDS011;18717;48.034;11.186;2024-03-08T08:24:28;40.55;;;20.83;;
32228;SDS011;18717;48.034;11.186;2024-03-08T08:26:55;38.80;;;21.65;;
32228;SDS011;18717;48.034;11.186;2024-03-08T08:29:23;35.92;;;19.60;;
32228;SDS011;18717;48.034;11.186;2024-03-08T08:31:51;35.63;;;19.42;;
32228;SDS011;18717;48.034;11.186;2024-03-08T08:34:20;37.72;;;20.00;;
32228;SDS011;18717;48.034;11.186;2024-03-08T08:36:50;37.73;;;20.20;;
32228;SDS011;18717;48.034;11.186;2024-03-08T08:39:18;38.97;;;20.17;;
32228;SDS011;18717;48.034;11.186;2024-03-08T08:41:48;39.15;;;19.42;;
32228;SDS011;18717;48.034;11.186;2024-03-08T08:44:18;41.22;;;20.42;;
32228;SDS011;18717;48.034;11.186;2024-03-08T08:46:46;43.30;;;20.65;;
32228;SDS011;18717;48.034;11.186;2024-03-08T08:49:15;42.95;;;22.75;;
32228;SDS011;18717;48.034;11.186;2024-03-08T08:51:49;33.13;;;19.15;;
32228;SDS011;18717;48.034;11.186;2024-03-08T08:54:20;43.58;;;23.00;;
32228;SDS011;18717;48.034;11.186;2024-03-08T08:56:48;39.35;;;20.73;;
32228;SDS011;18717;48.034;11.186;2024-03-08T08:59:16;38.30;;;19.70;;
32228;SDS011;18717;48.034;11.186;2024-03-08T09:01:49;38.22;;;21.75;;
32228;SDS011;18717;48.034;11.186;2024-03-08T09:04:20;34.07;;;19.60;;
32228;SDS011;18717;48.034;11.186;2024-03-08T09:06:50;42.38;;;19.30;;
32228;SDS011;18717;48.034;11.186;2024-03-08T09:09:18;37.25;;;21.27;;
32228;SDS011;18717;48.034;11.186;2024-03-08T09:11:46;35.97;;;20.38;;
32228;SDS011;18717;48.034;11.186;2024-03-08T09:14:14;33.85;;;20.27;;
32228;SDS011;18717;48.034;11.186;2024-03-08T09:16:42;38.25;;;20.10;;
32228;SDS011;18717;48.034;11.186;2024-03-08T09:19:09;37.17;;;21.73;;
32228;SDS011;18717;48.034;11.186;2024-03-08T09:21:37;37.75;;;20.38;;
32228;SDS011;18717;48.034;11.186;2024-03-08T09:24:07;36.95;;;20.88;;
32228;SDS011;18717;48.034;11.186;2024-03-08T09:26:35;35.28;;;19.30;;
32228;SDS011;18717;48.034;11.186;2024-03-08T09:29:03;38.88;;;20.60;;
32228;SDS011;18717;48.034;11.186;2024-03-08T09:31:33;37.55;;;21.65;;
32228;SDS011;18717;48.034;11.186;2024-03-08T09:34:01;33.30;;;19.63;;
32228;SDS011;18717;48.034;11.186;2024-03-08T09:36:28;31.90;;;19.98;;
32228;SDS011;18717;48.034;11.186;2024-03-08T09:38:59;38.00;;;19.58;;
32228;SDS011;18717;48.034;11.186;2024-03-08T09:41:28;34.45;;;20.58;;
32228;SDS011;18717;48.034;11.186;2024-03-08T09:43:56;37.20;;;20.98;;
32228;SDS011;18717;48.034;11.186;2024-03-08T09:46:26;35.65;;;20.35;;
32228;SDS011;18717;48.034;11.186;2024-03-08T09:48:54;33.55;;;20.30;;
32228;SDS011;18717;48.034;11.186;2024-03-08T09:51:22;39.22;;;20.98;;
32228;SDS011;18717;48.034;11.186;2024-03-08T09:53:54;35.15;;;21.58;;
32228;SDS011;18717;48.034;11.186;2024-03-08T09:56:22;33.70;;;20.42;;
32228;SDS011;18717;48.034;11.186;2024-03-08T09:58:52;34.80;;;20.00;;
32228;SDS011;18717;48.034;11.186;2024-03-08T10:01:41;36.17;;;20.50;;
32228;SDS011;18717;48.034;11.186;2024-03-08T10:04:08;33.03;;;20.08;;
32228;SDS011;18717;48.034;11.186;2024-03-08T10:06:37;32.20;;;19.08;;
32228;SDS011;18717;48.034;11.186;2024-03-08T10:09:04;35.35;;;20.15;;
32228;SDS011;18717;48.034;11.186;2024-03-08T10:11:34;33.75;;;19.20;;
32228;SDS011;18717;48.034;11.186;2024-03-08T10:14:03;32.88;;;20.23;;
32228;SDS011;18717;48.034;11.186;2024-03-08T10:16:32;30.75;;;19.80;;
32228;SDS011;18717;48.034;11.186;2024-03-08T10:19:01;33.15;;;20.23;;
32228;SDS011;18717;48.034;11.186;2024-03-08T10:21:29;27.05;;;19.13;;
32228;SDS011;18717;48.034;11.186;2024-03-08T10:23:57;30.50;;;20.08;;
32228;SDS011;18717;48.034;11.186;2024-03-08T10:26:25;30.25;;;19.85;;
32228;SDS011;18717;48.034;11.186;2024-03-08T10:28:53;30.33;;;20.30;;
32228;SDS011;18717;48.034;11.186;2024-03-08T10:31:22;28.35;;;20.13;;
32228;SDS011;18717;48.034;11.186;2024-03-08T10:33:50;29.77;;;19.15;;
32228;SDS011;18717;48.034;11.186;2024-03-08T10:36:18;29.83;;;18.52;;
32228;SDS011;18717;48.034;11.186;2024-03-08T10:38:46;29.73;;;19.60;;
32228;SDS011;18717;48.034;11.186;2024-03-08T10:41:14;27.58;;;19.20;;
32228;SDS011;18717;48.034;11.186;2024-03-08T10:43:48;28.55;;;18.38;;
32228;SDS011;18717;48.034;11.186;2024-03-08T10:46:27;27.38;;;18.88;;
32228;SDS011;18717;48.034;11.186;2024-03-08T10:48:58;27.55;;;17.95;;
32228;SDS011;18717;48.034;11.186;2024-03-08T10:51:29;32.55;;;19.95;;
32228;SDS011;18717;48.034;11.186;2024-03-08T10:53:58;25.77;;;18.20;;
32228;SDS011;18717;48.034;11.186;2024-03-08T10:56:29;25.23;;;18.30;;
32228;SDS011;18717;48.034;11.186;2024-03-08T10:58:57;26.85;;;19.60;;
32228;SDS011;18717;48.034;11.186;2024-03-08T11:01:26;24.60;;;18.25;;
32228;SDS011;18717;48.034;11.186;2024-03-08T11:03:56;20.77;;;13.52;;
32228;SDS011;18717;48.034;11.186;2024-03-08T11:06:29;27.30;;;19.30;;
32228;SDS011;18717;48.034;11.186;2024-03-08T11:08:58;30.35;;;19.13;;
32228;SDS011;18717;48.034;11.186;2024-03-08T11:11:27;24.60;;;17.92;;
32228;SDS011;18717;48.034;11.186;2024-03-08T11:14:00;26.83;;;18.55;;
32228;SDS011;18717;48.034;11.186;2024-03-08T11:16:39;25.88;;;19.40;;
32228;SDS011;18717;48.034;11.186;2024-03-08T11:19:26;28.60;;;18.70;;
32228;SDS011;18717;48.034;11.186;2024-03-08T11:21:58;26.67;;;20.80;;
32228;SDS011;18717;48.034;11.186;2024-03-08T11:24:37;27.50;;;19.20;;
32228;SDS011;18717;48.034;11.186;2024-03-08T11:27:07;28.05;;;19.98;;
32228;SDS011;18717;48.034;11.186;2024-03-08T11:29:36;26.95;;;19.80;;
32228;SDS011;18717;48.034;11.186;2024-03-08T11:32:11;25.42;;;18.98;;
32228;SDS011;18717;48.034;11.186;2024-03-08T11:34:40;32.10;;;18.88;;
32228;SDS011;18717;48.034;11.186;2024-03-08T11:37:12;25.20;;;18.17;;
32228;SDS011;18717;48.034;11.186;2024-03-08T11:39:45;23.60;;;17.73;;
32228;SDS011;18717;48.034;11.186;2024-03-08T11:42:14;20.02;;;16.83;;
32228;SDS011;18717;48.034;11.186;2024-03-08T11:44:43;27.02;;;18.48;;
32228;SDS011;18717;48.034;11.186;2024-03-08T11:47:12;23.83;;;17.77;;
32228;SDS011;18717;48.034;11.186;2024-03-08T11:49:41;25.73;;;19.27;;
32228;SDS011;18717;48.034;11.186;2024-03-08T11:52:10;25.20;;;19.08;;
32228;SDS011;18717;48.034;11.186;2024-03-08T11:54:39;24.13;;;18.90;;
32228;SDS011;18717;48.034;11.186;2024-03-08T11:57:07;27.27;;;18.70;;
32228;SDS011;18717;48.034;11.186;2024-03-08T11:59:36;24.33;;;18.63;;
32228;SDS011;18717;48.034;11.186;2024-03-08T12:02:04;27.42;;;18.20;;
32228;SDS011;18717;48.034;11.186;2024-03-08T12:04:34;25.38;;;18.73;;
32228;SDS011;18717;48.034;11.186;2024-03-08T12:07:02;25.65;;;19.48;;
32228;SDS011;18717;48.034;11.186;2024-03-08T12:09:35;26.67;;;18.88;;
32228;SDS011;18717;48.034;11.186;2024-03-08T12:12:03;25.75;;;18.35;;
32228;SDS011;18717;48.034;11.186;2024-03-08T12:14:34;24.98;;;18.00;;
32228;SDS011;18717;48.034;11.186;2024-03-08T12:17:03;33.13;;;19.55;;
32228;SDS011;18717;48.034;11.186;2024-03-08T12:19:33;28.10;;;19.08;;
32228;SDS011;18717;48.034;11.186;2024-03-08T12:22:07;32.95;;;20.50;;
32228;SDS011;18717;48.034;11.186;2024-03-08T12:24:36;22.90;;;18.63;;
32228;SDS011;18717;48.034;11.186;2024-03-08T12:27:17;23.48;;;18.90;;
32228;SDS011;18717;48.034;11.186;2024-03-08T12:29:45;21.67;;;17.23;;
32228;SDS011;18717;48.034;11.186;2024-03-08T12:32:13;21.70;;;18.48;;
32228;SDS011;18717;48.034;11.186;2024-03-08T12:34:42;21.98;;;18.38;;
32228;SDS011;18717;48.034;11.186;2024-03-08T12:37:12;26.95;;;17.27;;
32228;SDS011;18717;48.034;11.186;2024-03-08T12:39:40;21.27;;;16.63;;
32228;SDS011;18717;48.034;11.186;2024-03-08T12:42:12;19.50;;;16.60;;
32228;SDS011;18717;48.034;11.186;2024-03-08T12:44:40;21.00;;;17.05;;
32228;SDS011;18717;48.034;11.186;2024-03-08T12:47:09;26.48;;;18.27;;
32228;SDS011;18717;48.034;11.186;2024-03-08T12:49:37;22.02;;;18.48;;
32228;SDS011;18717;48.034;11.186;2024-03-08T12:52:09;19.23;;;17.02;;
32228;SDS011;18717;48.034;11.186;2024-03-08T12:54:38;21.13;;;16.48;;
32228;SDS011;18717;48.034;11.186;2024-03-08T12:57:06;20.10;;;17.17;;
32228;SDS011;18717;48.034;11.186;2024-03-08T12:59:34;20.88;;;16.40;;
32228;SDS011;18717;48.034;11.186;2024-03-08T13:02:01;18.52;;;16.55;;
32228;SDS011;18717;48.034;11.186;2024-03-08T13:04:29;20.55;;;16.73;;
32228;SDS011;18717;48.034;11.186;2024-03-08T13:06:58;22.65;;;18.38;;
32228;SDS011;18717;48.034;11.186;2024-03-08T13:09:29;21.35;;;17.65;;
32228;SDS011;18717;48.034;11.186;2024-03-08T13:11:58;26.92;;;18.90;;
32228;SDS011;18717;48.034;11.186;2024-03-08T13:14:27;22.63;;;17.88;;
32228;SDS011;18717;48.034;11.186;2024-03-08T13:16:58;28.95;;;18.77;;
32228;SDS011;18717;48.034;11.186;2024-03-08T13:19:26;22.25;;;18.08;;
32228;SDS011;18717;48.034;11.186;2024-03-08T13:21:54;25.15;;;18.70;;
32228;SDS011;18717;48.034;11.186;2024-03-08T13:24:22;25.25;;;18.55;;
32228;SDS011;18717;48.034;11.186;2024-03-08T13:26:52;23.58;;;18.58;;
32228;SDS011;18717;48.034;11.186;2024-03-08T13:29:20;24.73;;;18.52;;
32228;SDS011;18717;48.034;11.186;2024-03-08T13:31:49;21.98;;;19.10;;
32228;SDS011;18717;48.034;11.186;2024-03-08T13:34:18;22.77;;;18.88;;
32228;SDS011;18717;48.034;11.186;2024-03-08T13:36:54;22.27;;;18.13;;
32228;SDS011;18717;48.034;11.186;2024-03-08T13:39:26;26.88;;;19.17;;
32228;SDS011;18717;48.034;11.186;2024-03-08T13:41:56;27.95;;;20.52;;
32228;SDS011;18717;48.034;11.186;2024-03-08T13:44:24;23.63;;;19.33;;
32228;SDS011;18717;48.034;11.186;2024-03-08T13:46:54;27.65;;;19.80;;
32228;SDS011;18717;48.034;11.186;2024-03-08T13:49:24;25.52;;;20.08;;
32228;SDS011;18717;48.034;11.186;2024-03-08T13:51:52;25.77;;;19.77;;
32228;SDS011;18717;48.034;11.186;2024-03-08T13:54:21;30.38;;;21.38;;
32228;SDS011;18717;48.034;11.186;2024-03-08T13:56:49;27.92;;;20.23;;
32228;SDS011;18717;48.034;11.186;2024-03-08T13:59:19;26.55;;;19.58;;
32228;SDS011;18717;48.034;11.186;2024-03-08T14:01:48;24.85;;;19.23;;
32228;SDS011;18717;48.034;11.186;2024-03-08T14:04:16;23.15;;;18.80;;
32228;SDS011;18717;48.034;11.186;2024-03-08T14:06:44;37.33;;;20.45;;
32228;SDS011;18717;48.034;11.186;2024-03-08T14:09:12;23.88;;;17.52;;
32228;SDS011;18717;48.034;11.186;2024-03-08T14:11:43;24.60;;;19.13;;
32228;SDS011;18717;48.034;11.186;2024-03-08T14:14:11;27.75;;;19.05;;
32228;SDS011;18717;48.034;11.186;2024-03-08T14:16:41;24.63;;;18.48;;
32228;SDS011;18717;48.034;11.186;2024-03-08T14:19:09;25.15;;;20.67;;
32228;SDS011;18717;48.034;11.186;2024-03-08T14:21:37;24.40;;;18.60;;